EKEL weather

Endelave Flyveplads
Endelave, Central Jutland, Denmark

Public forecast

Using degrees Celsius for public forecast. Weather courtesy of forecast.io.

Closest aviation weather report (METAR) to Endelave Flyveplads

Closest report is Odense Airport, 17.0 nm (31.5 km) S. Retrieved 2019/11/20 10:20 UTC (24 minutes ago):

EKOD 201020Z 00000KT 7000 NSC 05/04 Q1020

Closest aviation forecast (TAF) to Endelave Flyveplads

Closest forecast is Aarhus Airport, 34.9 nm (64.7 km) NNE. Retrieved 2019/11/20 06:21 UTC (4 hours ago):

TAF EKAH 200517Z 2006/2106 VRB02KT 9999 BKN040 BECMG 2016/2018 3000 RADZ BR BKN005 TEMPO 2018/2106 8000 -RADZ SCT005 BKN012 BECMG 2020/2022 13010KT